createdAt,value
2018-06-27T00:01:04.614Z,20.50
2018-06-27T00:02:36.187Z,20.90
2018-06-27T00:04:07.760Z,24.10
2018-06-27T00:05:39.343Z,24.10
2018-06-27T00:07:10.901Z,27.50
2018-06-27T00:08:42.472Z,21.70
2018-06-27T00:10:14.144Z,24.60
2018-06-27T00:11:45.618Z,25.40
2018-06-27T00:13:17.188Z,25.70
2018-06-27T00:14:48.759Z,25.30
2018-06-27T00:16:20.331Z,23.90
2018-06-27T00:17:51.902Z,25.90
2018-06-27T00:19:23.496Z,25.70
2018-06-27T00:20:55.046Z,26.10
2018-06-27T00:22:26.618Z,29.00
2018-06-27T00:23:58.189Z,26.60
2018-06-27T00:25:29.760Z,27.40
2018-06-27T00:27:01.332Z,25.80
2018-06-27T00:28:33.003Z,26.60
2018-06-27T00:30:04.475Z,27.10
2018-06-27T00:31:36.046Z,26.10
2018-06-27T00:33:07.617Z,27.40
2018-06-27T00:34:39.191Z,28.20
2018-06-27T00:36:10.760Z,26.60
2018-06-27T00:37:42.332Z,28.10
2018-06-27T00:39:13.903Z,29.00
2018-06-27T00:40:45.475Z,27.30
2018-06-27T00:42:17.046Z,30.10
2018-06-27T00:43:48.617Z,29.80
2018-06-27T00:45:20.190Z,29.40
2018-06-27T00:46:51.910Z,29.40
2018-06-27T00:48:23.331Z,29.60
2018-06-27T00:49:54.902Z,29.00
2018-06-27T00:51:26.502Z,31.10
2018-06-27T00:52:58.048Z,29.90
2018-06-27T00:54:29.616Z,31.90
2018-06-27T00:56:01.189Z,31.10
2018-06-27T00:57:32.758Z,30.20
2018-06-27T00:59:04.330Z,31.50
2018-06-27T01:00:35.900Z,30.90
2018-06-27T01:02:07.472Z,31.40
2018-06-27T01:03:39.044Z,32.10
2018-06-27T01:05:10.714Z,30.40
2018-06-27T01:06:42.185Z,30.20
2018-06-27T01:08:13.758Z,31.20
2018-06-27T01:09:45.328Z,31.60
2018-06-27T01:11:16.899Z,33.20
2018-06-27T01:12:48.470Z,31.70
2018-06-27T01:14:20.041Z,31.40
2018-06-27T01:15:51.612Z,32.90
2018-06-27T01:17:23.185Z,31.90
2018-06-27T01:18:54.755Z,33.40
2018-06-27T01:20:26.325Z,32.20
2018-06-27T01:21:57.899Z,31.80
2018-06-27T01:23:29.568Z,33.20
2018-06-27T01:25:01.039Z,33.30
2018-06-27T01:26:32.610Z,32.70
2018-06-27T01:28:04.181Z,33.10
2018-06-27T01:29:35.752Z,31.40
2018-06-27T01:31:07.323Z,30.30
2018-06-27T01:32:38.895Z,34.30
2018-06-27T01:34:10.466Z,34.90
2018-06-27T01:35:42.037Z,34.70
2018-06-27T01:37:13.610Z,34.40
2018-06-27T01:38:45.180Z,32.90
2018-06-27T01:40:16.751Z,33.80
2018-06-27T01:41:48.625Z,32.20
2018-06-27T01:43:19.893Z,33.60
2018-06-27T01:44:51.466Z,32.70
2018-06-27T01:46:23.035Z,33.10
2018-06-27T01:47:54.606Z,32.00
2018-06-27T01:49:26.177Z,32.80
2018-06-27T01:50:57.748Z,34.30
2018-06-27T01:52:29.320Z,30.60
2018-06-27T01:54:00.889Z,31.20
2018-06-27T01:55:32.461Z,30.40
2018-06-27T01:57:04.032Z,32.10
2018-06-27T01:58:35.602Z,32.70
2018-06-27T02:00:07.277Z,31.50
2018-06-27T02:01:38.744Z,31.90
2018-06-27T02:03:10.317Z,33.60
2018-06-27T02:04:41.886Z,33.70
2018-06-27T02:06:13.457Z,34.20
2018-06-27T02:07:45.028Z,40.20
2018-06-27T02:09:16.599Z,35.30
2018-06-27T02:10:48.170Z,32.30
2018-06-27T02:12:19.741Z,34.30
2018-06-27T02:13:51.312Z,36.50
2018-06-27T02:15:22.883Z,36.10
2018-06-27T02:16:54.454Z,37.70
2018-06-27T02:18:26.125Z,37.50
2018-06-27T02:19:57.596Z,35.30
2018-06-27T02:21:29.178Z,33.00
2018-06-27T02:23:00.737Z,33.30
2018-06-27T02:24:32.308Z,35.00
2018-06-27T02:26:03.878Z,40.90
2018-06-27T02:27:35.542Z,42.00
2018-06-27T02:29:07.054Z,35.90
2018-06-27T02:30:38.591Z,39.10
2018-06-27T02:32:10.163Z,35.90
2018-06-27T02:33:41.733Z,41.50
2018-06-27T02:35:13.303Z,41.20
2018-06-27T02:36:44.974Z,37.10
2018-06-27T02:38:16.445Z,38.80
2018-06-27T02:39:48.017Z,41.50
2018-06-27T02:41:19.586Z,42.90
2018-06-27T02:42:51.307Z,40.50
2018-06-27T02:44:22.728Z,42.10
2018-06-27T02:45:54.298Z,45.70
2018-06-27T02:47:25.869Z,48.00
2018-06-27T02:48:57.440Z,47.80
2018-06-27T02:50:29.010Z,50.10
2018-06-27T02:52:00.581Z,44.90
2018-06-27T02:53:32.152Z,43.80
2018-06-27T02:55:03.923Z,45.90
2018-06-27T02:56:35.292Z,43.40
2018-06-27T02:58:06.863Z,45.70
2018-06-27T02:59:38.434Z,47.70
2018-06-27T03:01:10.005Z,48.40
2018-06-27T03:02:41.574Z,52.10
2018-06-27T03:04:13.145Z,56.10
2018-06-27T03:05:44.716Z,58.90
2018-06-27T03:07:16.286Z,54.20
2018-06-27T03:08:47.856Z,51.90
2018-06-27T03:10:19.431Z,49.80
2018-06-27T03:11:51.001Z,43.60
2018-06-27T03:13:22.669Z,48.40
2018-06-27T03:14:54.139Z,52.80
2018-06-27T03:16:25.709Z,50.90
2018-06-27T03:17:57.279Z,53.10
2018-06-27T03:19:28.852Z,44.60
2018-06-27T03:21:00.421Z,46.70
2018-06-27T03:22:31.992Z,48.60
2018-06-27T03:24:03.563Z,47.10
2018-06-27T03:25:35.132Z,47.80
2018-06-27T03:27:06.703Z,51.30
2018-06-27T03:28:38.274Z,50.90
2018-06-27T03:30:09.847Z,53.00
2018-06-27T03:31:41.515Z,48.70
2018-06-27T03:33:12.984Z,56.90
2018-06-27T03:34:44.555Z,55.70
2018-06-27T03:36:16.125Z,62.60
2018-06-27T03:37:47.846Z,61.20
2018-06-27T03:39:19.266Z,53.40
2018-06-27T03:40:50.837Z,51.50
2018-06-27T03:42:22.409Z,48.70
2018-06-27T03:43:53.979Z,51.70
2018-06-27T03:45:25.549Z,52.40
2018-06-27T03:46:57.119Z,55.90
2018-06-27T03:48:28.690Z,60.40
2018-06-27T03:50:00.362Z,60.80
2018-06-27T03:51:31.830Z,67.50
2018-06-27T03:53:03.401Z,78.60
2018-06-27T03:54:34.971Z,68.40
2018-06-27T03:56:06.641Z,62.60
2018-06-27T03:57:38.111Z,58.00
2018-06-27T03:59:09.682Z,54.50
2018-06-27T04:00:41.252Z,56.90
2018-06-27T04:02:12.822Z,56.80
2018-06-27T04:03:44.391Z,53.40
2018-06-27T04:05:15.962Z,55.00
2018-06-27T04:06:47.532Z,54.70
2018-06-27T04:08:19.203Z,56.20
2018-06-27T04:09:50.673Z,55.40
2018-06-27T04:11:22.243Z,58.40
2018-06-27T04:12:53.897Z,62.30
2018-06-27T04:14:25.405Z,67.30
2018-06-27T04:15:56.953Z,67.70
2018-06-27T04:17:28.542Z,64.50
2018-06-27T04:19:00.095Z,54.80
2018-06-27T04:20:31.665Z,62.40
2018-06-27T04:22:03.234Z,67.00
2018-06-27T04:23:34.805Z,62.10
2018-06-27T04:25:06.374Z,67.60
2018-06-27T04:26:38.046Z,68.90
2018-06-27T04:28:09.515Z,80.10
2018-06-27T04:29:41.172Z,72.10
2018-06-27T04:31:12.657Z,68.80
2018-06-27T04:32:44.226Z,66.90
2018-06-27T04:34:15.797Z,66.90
2018-06-27T04:35:47.403Z,58.40
2018-06-27T04:37:18.937Z,70.70
2018-06-27T04:38:50.657Z,78.50
2018-06-27T04:40:22.077Z,81.80
2018-06-27T04:41:53.649Z,73.30
2018-06-27T04:43:25.217Z,79.30
2018-06-27T04:44:56.891Z,75.80
2018-06-27T04:46:28.357Z,63.60
2018-06-27T04:47:59.928Z,67.60
2018-06-27T04:49:31.531Z,65.60
2018-06-27T04:51:03.076Z,63.60
2018-06-27T04:52:34.640Z,68.30
2018-06-27T04:54:06.215Z,67.90
2018-06-27T04:55:37.786Z,61.90
2018-06-27T04:57:09.451Z,63.80
2018-06-27T04:58:40.921Z,62.30
2018-06-27T05:00:12.493Z,62.60
2018-06-27T05:01:44.090Z,61.60
2018-06-27T05:03:15.734Z,58.70
2018-06-27T05:04:47.204Z,58.60
2018-06-27T05:06:18.774Z,62.10
2018-06-27T05:07:50.345Z,62.00
2018-06-27T05:09:21.915Z,62.70
2018-06-27T05:10:53.486Z,64.50
2018-06-27T05:12:25.057Z,58.50
2018-06-27T05:13:56.628Z,60.30
2018-06-27T05:15:28.198Z,60.20
2018-06-27T05:16:59.769Z,63.50
2018-06-27T05:18:31.340Z,61.30
2018-06-27T05:20:02.910Z,62.00
2018-06-27T05:21:34.582Z,60.60
2018-06-27T05:23:06.054Z,59.80
2018-06-27T05:24:37.623Z,57.50
2018-06-27T05:26:09.194Z,56.90
2018-06-27T05:27:40.874Z,52.40
2018-06-27T05:29:12.336Z,53.10
2018-06-27T05:30:43.907Z,53.90
2018-06-27T05:32:15.478Z,53.50
2018-06-27T05:33:47.051Z,53.00
2018-06-27T05:35:18.619Z,50.60
2018-06-27T05:36:50.192Z,52.70
2018-06-27T05:38:21.764Z,49.50
2018-06-27T05:39:53.432Z,49.20
2018-06-27T05:41:24.903Z,51.60
2018-06-27T05:42:56.474Z,50.10
2018-06-27T05:44:28.045Z,51.20
2018-06-27T05:45:59.615Z,48.00
2018-06-27T05:47:31.186Z,50.90
2018-06-27T05:49:02.756Z,51.90
2018-06-27T05:50:34.327Z,52.90
2018-06-27T05:52:05.900Z,55.00
2018-06-27T05:53:37.469Z,53.10
2018-06-27T05:55:09.041Z,56.10
2018-06-27T05:56:40.610Z,57.00
2018-06-27T05:58:12.341Z,58.00
2018-06-27T05:59:43.751Z,64.60
2018-06-27T06:01:15.322Z,64.40
2018-06-27T06:02:46.892Z,69.90
2018-06-27T06:04:18.475Z,65.60
2018-06-27T06:05:50.033Z,61.70
2018-06-27T06:07:21.602Z,61.50
2018-06-27T06:08:53.174Z,57.60
2018-06-27T06:10:24.798Z,57.30
2018-06-27T06:11:56.341Z,59.10
2018-06-27T06:13:27.883Z,57.90
2018-06-27T06:14:59.453Z,56.60
2018-06-27T06:16:31.325Z,64.30
2018-06-27T06:18:02.600Z,60.90
2018-06-27T06:19:34.163Z,65.10
2018-06-27T06:21:05.735Z,66.60
2018-06-27T06:22:37.303Z,65.40
2018-06-27T06:24:08.875Z,63.70
2018-06-27T06:25:40.443Z,65.90
2018-06-27T06:27:12.013Z,64.80
2018-06-27T06:28:43.581Z,65.30
2018-06-27T06:30:15.152Z,66.20
2018-06-27T06:31:46.722Z,75.00
2018-06-27T06:33:18.292Z,74.20
2018-06-27T06:34:49.961Z,64.40
2018-06-27T06:36:21.431Z,63.30
2018-06-27T06:37:53.000Z,68.30
2018-06-27T06:39:24.570Z,69.20
2018-06-27T06:40:56.140Z,64.10
2018-06-27T06:42:27.710Z,67.70
2018-06-27T06:43:59.279Z,72.20
2018-06-27T06:45:30.848Z,72.10
2018-06-27T06:47:02.417Z,71.50
2018-06-27T06:48:33.987Z,69.10
2018-06-27T06:50:05.556Z,78.90
2018-06-27T06:51:37.127Z,81.50
2018-06-27T06:53:08.796Z,78.60
2018-06-27T06:54:40.266Z,78.70
2018-06-27T06:56:11.835Z,73.00
2018-06-27T06:57:43.404Z,76.20
2018-06-27T06:59:15.075Z,74.60
2018-06-27T07:00:46.543Z,79.30
2018-06-27T07:02:18.113Z,65.20
2018-06-27T07:03:49.683Z,64.90
2018-06-27T07:05:21.252Z,89.20
2018-06-27T07:06:52.821Z,71.30
2018-06-27T07:08:24.390Z,74.60
2018-06-27T07:09:55.960Z,75.60
2018-06-27T07:11:27.629Z,84.00
2018-06-27T07:12:59.099Z,80.40
2018-06-27T07:14:30.668Z,75.60
2018-06-27T07:16:02.238Z,79.10
2018-06-27T07:17:33.809Z,83.00
2018-06-27T07:19:05.378Z,84.50
2018-06-27T07:20:36.946Z,81.90
2018-06-27T07:22:08.516Z,82.30
2018-06-27T07:23:40.085Z,83.50
2018-06-27T07:25:11.656Z,83.50
2018-06-27T07:26:43.224Z,85.70
2018-06-27T07:28:14.794Z,87.70
2018-06-27T07:29:46.616Z,90.30
2018-06-27T07:31:17.932Z,88.50
2018-06-27T07:32:49.512Z,87.10
2018-06-27T07:34:21.071Z,90.40
2018-06-27T07:35:52.833Z,81.20
2018-06-27T07:37:24.212Z,84.60
2018-06-27T07:38:55.779Z,84.10
2018-06-27T07:40:27.348Z,81.30
2018-06-27T07:41:58.919Z,86.30
2018-06-27T07:43:30.487Z,88.90
2018-06-27T07:45:02.056Z,87.30
2018-06-27T07:46:33.625Z,85.90
2018-06-27T07:48:05.294Z,87.10
2018-06-27T07:49:36.763Z,95.20
2018-06-27T07:51:08.333Z,88.70
2018-06-27T07:52:39.902Z,87.80
2018-06-27T07:54:11.473Z,96.30
2018-06-27T07:55:43.045Z,95.90
2018-06-27T07:57:14.610Z,93.10
2018-06-27T07:58:46.178Z,96.10
2018-06-27T08:00:17.848Z,94.00
2018-06-27T08:01:49.318Z,100.10
2018-06-27T08:03:20.886Z,99.70
2018-06-27T08:04:52.456Z,94.70
2018-06-27T08:06:24.125Z,95.00
2018-06-27T08:07:55.601Z,96.90
2018-06-27T08:09:27.163Z,95.50
2018-06-27T08:10:58.732Z,96.90
2018-06-27T08:12:30.371Z,89.20
2018-06-27T08:14:01.870Z,95.80
2018-06-27T08:15:33.440Z,97.60
2018-06-27T08:17:05.010Z,92.90
2018-06-27T08:18:36.578Z,89.90
2018-06-27T08:20:08.147Z,92.50
2018-06-27T08:21:39.716Z,93.20
2018-06-27T08:23:11.285Z,98.30
2018-06-27T08:24:42.954Z,87.70
2018-06-27T08:26:14.505Z,89.10
2018-06-27T08:27:45.992Z,85.90
2018-06-27T08:29:17.562Z,86.50
2018-06-27T08:30:49.230Z,82.70
2018-06-27T08:32:20.704Z,85.00
2018-06-27T08:33:52.270Z,83.20
2018-06-27T08:35:23.838Z,85.60
2018-06-27T08:36:55.408Z,84.00
2018-06-27T08:38:26.977Z,83.80
2018-06-27T08:39:58.548Z,83.70
2018-06-27T08:41:30.115Z,85.70
2018-06-27T08:43:01.985Z,87.50
2018-06-27T08:44:33.254Z,86.60
2018-06-27T08:46:04.824Z,87.50
2018-06-27T08:47:36.392Z,84.80
2018-06-27T08:49:07.965Z,73.70
2018-06-27T08:50:39.532Z,77.40
2018-06-27T08:52:11.100Z,75.20
2018-06-27T08:53:42.670Z,78.80
2018-06-27T08:55:14.239Z,82.90
2018-06-27T08:56:45.808Z,79.00
2018-06-27T08:58:17.380Z,80.20
2018-06-27T08:59:48.947Z,74.00
2018-06-27T09:01:20.617Z,75.10
2018-06-27T09:02:52.086Z,74.80
2018-06-27T09:04:23.665Z,71.20
2018-06-27T09:05:55.225Z,73.30
2018-06-27T09:07:26.794Z,77.90
2018-06-27T09:08:58.363Z,76.40
2018-06-27T09:10:29.933Z,86.50
2018-06-27T09:12:01.504Z,85.80
2018-06-27T09:13:33.073Z,85.70
2018-06-27T09:15:04.673Z,89.80
2018-06-27T09:16:36.209Z,88.80
2018-06-27T09:18:08.158Z,88.10
2018-06-27T09:19:39.448Z,85.10
2018-06-27T09:21:10.919Z,85.40
2018-06-27T09:22:42.487Z,84.60
2018-06-27T09:24:14.056Z,84.70
2018-06-27T09:25:45.626Z,84.60
2018-06-27T09:27:17.195Z,83.60
2018-06-27T09:28:48.764Z,81.30
2018-06-27T09:30:20.334Z,83.10
2018-06-27T09:31:51.903Z,81.20
2018-06-27T09:33:23.478Z,80.60
2018-06-27T09:34:55.042Z,78.50
2018-06-27T09:36:26.613Z,80.10
2018-06-27T09:37:58.281Z,87.10
2018-06-27T09:39:29.752Z,82.10
2018-06-27T09:41:01.327Z,84.20
2018-06-27T09:42:32.890Z,80.20
2018-06-27T09:44:04.459Z,79.30
2018-06-27T09:45:36.028Z,83.70
2018-06-27T09:48:39.168Z,73.30
2018-06-27T09:51:42.940Z,75.60
2018-06-27T09:53:13.877Z,73.90
2018-06-27T09:54:45.610Z,75.40
2018-06-27T09:56:17.105Z,74.20
2018-06-27T09:57:48.993Z,70.10
2018-06-27T09:59:20.227Z,64.60
2018-06-27T10:00:51.729Z,65.50
2018-06-27T10:03:55.068Z,63.20
2018-06-27T10:05:26.738Z,60.50
2018-06-27T10:06:58.360Z,59.80
2018-06-27T10:08:29.574Z,57.80
2018-06-27T10:10:01.146Z,57.80
2018-06-27T10:11:32.839Z,57.20
2018-06-27T10:13:04.467Z,55.80
2018-06-27T10:14:35.855Z,55.50
2018-06-27T10:16:08.581Z,54.20
2018-06-27T10:17:39.001Z,52.10
2018-06-27T10:19:10.568Z,52.50
2018-06-27T10:20:42.141Z,49.80
2018-06-27T10:22:13.780Z,48.00
2018-06-27T10:25:17.080Z,48.40
2018-06-27T10:26:48.444Z,48.00
2018-06-27T10:28:20.002Z,44.90
2018-06-27T10:29:51.777Z,46.00
2018-06-27T10:32:55.252Z,43.40
2018-06-27T10:34:26.386Z,41.20
2018-06-27T10:35:57.861Z,40.10
2018-06-27T10:37:29.433Z,41.90
2018-06-27T10:39:01.543Z,39.60
2018-06-27T10:40:32.580Z,37.20
2018-06-27T10:43:36.666Z,38.30
2018-06-27T10:45:07.607Z,37.20
2018-06-27T10:46:38.874Z,37.30
2018-06-27T10:48:10.446Z,38.00
2018-06-27T10:49:42.325Z,40.90
2018-06-27T10:51:13.592Z,43.00
2018-06-27T10:52:45.357Z,37.30
2018-06-27T10:54:17.426Z,42.80
2018-06-27T10:55:48.435Z,42.20
2018-06-27T10:57:19.882Z,44.20
2018-06-27T10:58:51.456Z,46.60
2018-06-27T11:00:23.230Z,45.90
2018-06-27T11:03:26.186Z,43.60
2018-06-27T11:04:58.048Z,43.60
2018-06-27T11:06:29.520Z,42.80
2018-06-27T11:08:01.435Z,41.30
2018-06-27T11:11:04.140Z,44.30
2018-06-27T11:12:35.612Z,45.20
2018-06-27T11:14:07.315Z,46.60
2018-06-27T11:18:41.909Z,43.80
2018-06-27T11:20:14.016Z,43.00
2018-06-27T11:21:45.265Z,46.20
2018-06-27T11:23:16.636Z,45.50
2018-06-27T11:26:19.891Z,44.20
2018-06-27T11:27:51.361Z,42.50
2018-06-27T11:30:54.514Z,39.20
2018-06-27T11:32:26.092Z,38.30
2018-06-27T11:33:57.671Z,36.50
2018-06-27T11:35:29.245Z,35.80
2018-06-27T11:38:32.712Z,32.60
2018-06-27T11:43:07.735Z,28.40
2018-06-27T11:44:39.347Z,29.10
2018-06-27T11:47:41.872Z,26.70
2018-06-27T11:49:13.451Z,27.40
2018-06-27T11:50:45.029Z,26.90
2018-06-27T11:52:16.639Z,26.80
2018-06-27T11:53:48.183Z,26.60
2018-06-27T11:55:19.779Z,27.20
2018-06-27T11:58:22.921Z,24.20
2018-06-27T11:59:54.501Z,24.10
2018-06-27T12:02:57.862Z,25.10
2018-06-27T12:04:29.344Z,25.30
2018-06-27T12:06:02.234Z,25.70
2018-06-27T12:07:32.399Z,26.00
2018-06-27T12:09:03.979Z,26.90
2018-06-27T12:10:35.781Z,24.70
2018-06-27T12:12:07.141Z,25.70
2018-06-27T12:13:39.257Z,25.90
2018-06-27T12:15:10.304Z,27.20
2018-06-27T12:16:41.957Z,27.70
2018-06-27T12:18:13.515Z,26.30
2018-06-27T12:19:45.223Z,29.60
2018-06-27T12:21:16.652Z,28.90
2018-06-27T12:22:48.324Z,27.00
2018-06-27T12:24:19.813Z,27.10
2018-06-27T12:25:52.108Z,27.90
2018-06-27T12:27:22.952Z,28.20
2018-06-27T12:28:54.531Z,28.10
2018-06-27T12:31:57.693Z,30.10
2018-06-27T12:33:29.474Z,29.50
2018-06-27T12:35:00.852Z,30.50
2018-06-27T12:36:32.431Z,29.60
2018-06-27T12:38:04.017Z,29.50
2018-06-27T12:39:35.591Z,30.00
2018-06-27T12:41:07.272Z,29.70
2018-06-27T12:42:38.754Z,30.70
2018-06-27T12:44:10.332Z,30.80
2018-06-27T12:45:41.913Z,30.50
2018-06-27T12:47:13.696Z,30.80
2018-06-27T12:50:16.707Z,29.10
2018-06-27T12:51:48.439Z,31.30
2018-06-27T12:53:20.128Z,31.30
2018-06-27T12:56:23.182Z,31.20
2018-06-27T12:57:54.763Z,30.10
2018-06-27T13:02:30.159Z,32.20
2018-06-27T13:04:01.076Z,31.30
2018-06-27T13:05:32.755Z,32.60
2018-06-27T13:07:04.255Z,31.70
2018-06-27T13:08:35.629Z,32.70
2018-06-27T13:10:07.211Z,31.30
2018-06-27T13:11:38.794Z,31.90
2018-06-27T13:13:10.679Z,32.00
2018-06-27T13:14:42.006Z,31.10
2018-06-27T13:17:45.653Z,31.60
2018-06-27T13:19:16.702Z,33.00
2018-06-27T13:20:48.689Z,32.00
2018-06-27T13:22:19.868Z,31.40
2018-06-27T13:23:51.663Z,30.90
2018-06-27T13:25:23.034Z,31.50
2018-06-27T13:28:26.403Z,34.80
2018-06-27T13:29:57.794Z,33.30
2018-06-27T13:31:29.373Z,33.30
2018-06-27T13:37:36.005Z,33.50
2018-06-27T13:40:39.779Z,32.80
2018-06-27T13:42:10.459Z,33.00
2018-06-27T13:45:14.352Z,31.90
2018-06-27T13:46:45.199Z,31.30
2018-06-27T13:48:17.292Z,31.70
2018-06-27T13:51:20.251Z,29.90
2018-06-27T13:52:51.769Z,29.50
2018-06-27T13:54:23.368Z,28.50
2018-06-27T13:55:54.692Z,27.80
2018-06-27T13:57:27.068Z,27.20
2018-06-27T13:58:57.887Z,26.60
2018-06-27T14:00:29.457Z,26.40
2018-06-27T14:02:01.260Z,26.20
2018-06-27T14:03:32.675Z,26.90
2018-06-27T14:05:04.186Z,25.60
2018-06-27T14:06:35.857Z,27.70
2018-06-27T14:08:07.350Z,26.20
2018-06-27T14:09:38.932Z,27.10
2018-06-27T14:11:10.519Z,26.80
2018-06-27T14:14:13.792Z,28.70
2018-06-27T14:15:45.416Z,26.10
2018-06-27T14:18:48.667Z,26.90
2018-06-27T14:20:20.007Z,27.30
2018-06-27T14:21:51.596Z,26.10
2018-06-27T14:23:23.170Z,24.40
2018-06-27T14:24:55.058Z,23.20
2018-06-27T14:26:26.539Z,23.60
2018-06-27T14:27:58.124Z,22.20
2018-06-27T14:29:29.501Z,22.70
2018-06-27T14:31:01.285Z,22.50
2018-06-27T14:32:32.665Z,21.20
2018-06-27T14:34:04.357Z,21.00
2018-06-27T14:37:07.752Z,18.10
2018-06-27T14:40:11.469Z,18.70
2018-06-27T14:41:42.161Z,17.40
2018-06-27T14:43:13.744Z,17.90
2018-06-27T14:44:45.330Z,18.00
2018-06-27T14:46:16.911Z,16.10
2018-06-27T14:47:48.497Z,16.70
2018-06-27T14:49:20.314Z,16.80
2018-06-27T14:50:51.659Z,15.70
2018-06-27T14:52:23.547Z,15.40
2018-06-27T14:53:54.825Z,16.80
2018-06-27T14:55:26.429Z,15.60
2018-06-27T14:56:58.098Z,15.10
2018-06-27T14:58:29.815Z,14.20
2018-06-27T15:00:01.183Z,14.80
2018-06-27T15:01:33.287Z,14.50
2018-06-27T15:03:04.324Z,15.00
2018-06-27T15:04:37.011Z,16.10
2018-06-27T15:06:07.694Z,15.40
2018-06-27T15:07:39.075Z,15.00
2018-06-27T15:09:10.658Z,14.60
2018-06-27T15:12:14.558Z,14.90
2018-06-27T15:13:45.408Z,15.10
2018-06-27T15:15:17.203Z,14.00
2018-06-27T15:16:48.889Z,15.80
2018-06-27T15:18:20.269Z,14.90
2018-06-27T15:19:51.743Z,15.60
2018-06-27T15:21:23.326Z,15.40
2018-06-27T15:22:54.909Z,14.40
2018-06-27T15:24:26.796Z,13.50
2018-06-27T15:27:30.167Z,14.10
2018-06-27T15:29:01.548Z,13.10
2018-06-27T15:30:33.441Z,14.20
2018-06-27T15:33:36.000Z,13.10
2018-06-27T15:35:07.656Z,12.70
2018-06-27T15:36:40.009Z,13.10
2018-06-27T15:38:10.777Z,12.50
2018-06-27T15:39:42.868Z,12.90
2018-06-27T15:42:45.603Z,12.90
2018-06-27T15:44:17.087Z,12.70
2018-06-27T15:47:20.256Z,12.90
2018-06-27T15:48:52.040Z,13.90
2018-06-27T15:50:23.424Z,13.30
2018-06-27T15:51:55.015Z,14.50
2018-06-27T15:53:26.593Z,14.20
2018-06-27T15:54:58.176Z,14.00
2018-06-27T15:56:29.963Z,13.80
2018-06-27T15:58:01.397Z,13.60
2018-06-27T15:59:33.232Z,13.00
2018-06-27T16:01:04.514Z,12.80
2018-06-27T16:02:36.403Z,13.70
2018-06-27T16:05:39.264Z,13.90
2018-06-27T16:07:11.149Z,12.20
2018-06-27T16:10:14.325Z,12.40
2018-06-27T16:11:45.863Z,11.40
2018-06-27T16:13:17.181Z,13.30
2018-06-27T16:14:48.767Z,12.40
2018-06-27T16:16:20.351Z,12.60
2018-06-27T16:17:51.936Z,12.80
2018-06-27T16:20:55.375Z,13.30
2018-06-27T16:23:58.729Z,13.70
2018-06-27T16:25:30.119Z,12.90
2018-06-27T16:27:01.985Z,12.30
2018-06-27T16:28:33.928Z,12.80
2018-06-27T16:30:05.099Z,12.40
2018-06-27T16:31:36.941Z,12.80
2018-06-27T16:33:08.401Z,11.80
2018-06-27T16:34:39.950Z,11.40
2018-06-27T16:36:10.929Z,11.90
2018-06-27T16:37:42.717Z,11.90
2018-06-27T16:39:14.552Z,11.40
2018-06-27T16:40:47.111Z,11.90
2018-06-27T16:42:17.559Z,10.90
2018-06-27T16:43:49.352Z,11.10
2018-06-27T16:45:20.907Z,11.10
2018-06-27T16:48:23.604Z,11.20
2018-06-27T16:49:55.541Z,11.90
2018-06-27T16:51:26.916Z,12.00
2018-06-27T16:52:58.347Z,12.30
2018-06-27T16:54:30.309Z,12.50
2018-06-27T16:56:01.714Z,12.10
2018-06-27T16:57:33.785Z,12.40
2018-06-27T16:59:04.885Z,13.00
2018-06-27T17:00:37.696Z,11.70
2018-06-27T17:02:08.466Z,12.30
2018-06-27T17:03:40.787Z,11.70
2018-06-27T17:05:11.519Z,12.80
2018-06-27T17:06:42.591Z,11.90
2018-06-27T17:08:14.176Z,11.70
2018-06-27T17:11:17.341Z,10.80
2018-06-27T17:14:21.075Z,12.10
2018-06-27T17:15:52.121Z,11.50
2018-06-27T17:17:23.708Z,10.80
2018-06-27T17:18:55.274Z,11.10
2018-06-27T17:20:27.354Z,11.10
2018-06-27T17:21:58.930Z,11.20
2018-06-27T17:23:31.789Z,10.30
2018-06-27T17:28:05.303Z,10.80
2018-06-27T17:31:07.936Z,10.50
2018-06-27T17:32:39.510Z,11.30
2018-06-27T17:34:12.627Z,10.50
2018-06-27T17:35:42.671Z,9.70
2018-06-27T17:37:14.472Z,9.60
2018-06-27T17:38:46.397Z,10.50
2018-06-27T17:40:17.969Z,10.50
2018-06-27T17:41:49.142Z,9.90
2018-06-27T17:43:20.686Z,10.00
2018-06-27T17:44:52.290Z,11.20
2018-06-27T17:46:24.115Z,9.70
2018-06-27T17:47:55.540Z,9.60
2018-06-27T17:49:27.541Z,9.30
2018-06-27T17:50:58.699Z,9.60
2018-06-27T17:52:30.283Z,10.50
2018-06-27T17:54:01.663Z,9.80
2018-06-27T17:57:04.830Z,9.00
2018-06-27T17:58:36.415Z,8.90
2018-06-27T18:01:40.254Z,10.00
2018-06-27T18:03:11.567Z,10.30
2018-06-27T18:04:42.994Z,9.90
2018-06-27T18:06:14.353Z,9.20
2018-06-27T18:07:45.908Z,9.80
2018-06-27T18:12:20.903Z,10.50
2018-06-27T18:13:52.238Z,9.80
2018-06-27T18:16:55.602Z,9.00
2018-06-27T18:18:27.389Z,9.80
2018-06-27T18:19:58.647Z,9.80
2018-06-27T18:21:31.561Z,9.30
2018-06-27T18:23:01.795Z,9.30
2018-06-27T18:24:33.404Z,9.30
2018-06-27T18:26:05.088Z,9.20
2018-06-27T18:27:36.467Z,8.80
2018-06-27T18:29:08.398Z,9.80
2018-06-27T18:30:40.043Z,9.90
2018-06-27T18:32:11.211Z,10.00
2018-06-27T18:33:43.394Z,12.00
2018-06-27T18:35:14.643Z,11.10
2018-06-27T18:36:46.516Z,11.00
2018-06-27T18:38:17.755Z,11.00
2018-06-27T18:41:20.695Z,11.80
2018-06-27T18:42:52.348Z,12.60
2018-06-27T18:44:23.866Z,12.50
2018-06-27T18:45:55.878Z,13.50
2018-06-27T18:47:27.016Z,13.30
2018-06-27T18:48:58.700Z,13.10
2018-06-27T18:50:30.236Z,14.70
2018-06-27T18:52:01.975Z,14.80
2018-06-27T18:53:33.344Z,13.20
2018-06-27T18:55:05.020Z,13.90
2018-06-27T18:56:36.699Z,13.70
2018-06-27T18:58:08.074Z,14.10
2018-06-27T18:59:39.668Z,13.60
2018-06-27T19:02:42.813Z,13.80
2018-06-27T19:04:14.597Z,15.80
2018-06-27T19:08:49.445Z,16.70
2018-06-27T19:10:20.909Z,16.40
2018-06-27T19:11:52.284Z,17.10
2018-06-27T19:13:24.115Z,17.90
2018-06-27T19:14:55.743Z,17.80
2018-06-27T19:16:27.018Z,18.60
2018-06-27T19:17:59.003Z,17.70
2018-06-27T19:19:30.400Z,19.90
2018-06-27T19:21:01.754Z,19.80
2018-06-27T19:24:04.964Z,17.80
2018-06-27T19:27:08.366Z,17.50
2018-06-27T19:28:39.638Z,17.30
2018-06-27T19:30:11.467Z,17.10
2018-06-27T19:31:42.999Z,17.00
2018-06-27T19:33:15.111Z,17.50
2018-06-27T19:34:45.946Z,16.90
2018-06-27T19:36:17.525Z,17.60
2018-06-27T19:37:49.835Z,19.10
2018-06-27T19:39:20.852Z,19.60
2018-06-27T19:40:52.271Z,18.70
2018-06-27T19:42:23.996Z,19.60
2018-06-27T19:43:55.959Z,20.40
2018-06-27T19:45:27.454Z,21.60
2018-06-27T19:46:59.083Z,21.00
2018-06-27T19:48:30.664Z,21.10
2018-06-27T19:50:01.859Z,21.20
2018-06-27T19:51:34.022Z,19.80
2018-06-27T19:56:08.008Z,16.80
2018-06-27T19:57:39.584Z,16.50
2018-06-27T19:59:11.158Z,15.40
2018-06-27T20:00:42.935Z,15.70
2018-06-27T20:02:14.700Z,15.20
2018-06-27T20:03:46.033Z,15.10
2018-06-27T20:05:17.457Z,14.80
2018-06-27T20:06:49.031Z,14.50
2018-06-27T20:08:20.909Z,14.80
2018-06-27T20:09:52.621Z,15.50
2018-06-27T20:11:23.754Z,15.80
2018-06-27T20:14:27.056Z,17.10
2018-06-27T20:15:58.540Z,16.00
2018-06-27T20:17:30.050Z,15.20
2018-06-27T20:19:01.642Z,14.40
2018-06-27T20:20:33.198Z,16.30
2018-06-27T20:22:05.043Z,18.80
2018-06-27T20:23:36.344Z,16.60
2018-06-27T20:25:07.917Z,18.40
2018-06-27T20:26:39.489Z,17.10
2018-06-27T20:28:11.163Z,16.80
2018-06-27T20:29:42.635Z,17.30
2018-06-27T20:31:14.237Z,17.60
2018-06-27T20:32:45.782Z,18.20
2018-06-27T20:34:17.355Z,17.80
2018-06-27T20:35:48.928Z,16.40
2018-06-27T20:37:20.708Z,16.70
2018-06-27T20:38:52.075Z,15.50
2018-06-27T20:40:23.647Z,15.50
2018-06-27T20:41:55.220Z,13.60
2018-06-27T20:43:26.793Z,14.20
2018-06-27T20:44:58.367Z,14.00
2018-06-27T20:46:30.037Z,12.70
2018-06-27T20:48:01.510Z,13.60
2018-06-27T20:49:33.083Z,14.40
2018-06-27T20:51:04.655Z,15.10
2018-06-27T20:52:36.328Z,14.90
2018-06-27T20:54:07.804Z,14.10
2018-06-27T20:55:39.373Z,14.60
2018-06-27T20:57:10.945Z,15.20
2018-06-27T20:58:42.668Z,17.90
2018-06-27T21:00:14.095Z,16.70
2018-06-27T21:01:45.666Z,14.20
2018-06-27T21:03:17.234Z,16.10
2018-06-27T21:04:48.907Z,15.80
2018-06-27T21:06:20.380Z,14.90
2018-06-27T21:07:51.964Z,15.10
2018-06-27T21:09:23.525Z,15.30
2018-06-27T21:10:55.097Z,14.10
2018-06-27T21:12:26.670Z,14.70
2018-06-27T21:13:58.243Z,15.50
2018-06-27T21:15:29.815Z,16.20
2018-06-27T21:17:01.388Z,15.30
2018-06-27T21:18:32.960Z,16.10